Historyczne dane pomiarowe

Dodano dane terminowe – wersja testowa.

Dane z okresu 1951-2019

Wersja bazy: 1.34 [2019-03-16, lista zmian], aktualizacja planowana na 2019-04-15

Dane meteo z obszaru Polski uzyskane na podstawie danych udostępnionych przez Instytut Meteorologii i Gospodarki Wodnej – Państwowy Instytut Badawczy.

 

Wybierz Datę:    

       

TemperaturaWilgotnośćWiatrCiśnienieOpadyŚniegCzas trwania zjawisk
 Stacja t tx tn tng RH VA  wxwx mslp ppp RRR   cm mm wxwxwxwxwxwxwx
1956-11-09 0.9 4.3 -0.4 -3.5 75.3- 0.3 6.0---- 0.0------------
1956-11-08 2.7 3.9 1.7 0.9 87.3- 5.3 3.7---- 0.0------------
1956-11-07 3.0 5.1 2.7 1.9 96.5- 8.0 2.0---- 1.1------------
1956-11-06 4.0 6.0 1.6 -3.7 89.8- 5.7 3.7---- 7.5------------
1956-11-05 6.2 8.8 4.0 4.0 76.8- 4.3 6.0---- 1.1------------
1956-11-04 5.1 6.1 2.7 1.5 94.0- 8.0 3.3---- 0.7------------
1956-11-03 3.2 6.5 -1.6 -9.1 89.0- 3.0 2.7---- 0.0------------
1956-11-02 4.7 6.6 2.2 -0.5 83.8- 6.0 2.7---- 0.0------------
1956-11-01 1.7 2.8 -4.8-11.1 89.3- 6.7 3.3---- 0.7------------
1956-10-31 -1.8 4.0 -4.9 -8.7 78.0- 1.3 2.3---- 0.0------------
1956-10-30 1.8 3.6 1.3 0.3 80.0- 8.0 7.3---- 0.0------------
1956-10-29 4.9 8.8 3.3 6.2 81.8- 8.0 5.0---- 1.3------------
1956-10-28 8.7 9.6 7.5 6.6 93.8- 8.0 4.3---- 0.0------------
1956-10-27 8.3 9.9 2.6 -3.1 88.5- 7.7 8.3---- 16.5------------
1956-10-26 5.2 8.4 3.2 -1.9 88.5- 3.0 3.0---- 0.0------------
1956-10-25 10.1 13.6 7.9 7.8 79.3- 2.0 5.0---- 0.7------------
1956-10-24 13.6 15.4 11.2 7.5 82.5- 7.0 4.7---- 0.0------------
1956-10-23 11.9 12.6 10.5 8.3 77.0- 7.3 4.3---- 0.0------------
1956-10-22 12.3 13.3 11.4 7.6 77.3- 8.0 5.3---- 0.0------------
1956-10-21 12.9 14.0 10.0 2.7 88.0- 7.3 2.3---- 0.0------------
1956-10-20 11.3 11.9 8.2 1.9 92.5- 8.0 2.0---- 1.1------------
1956-10-19 11.1 13.7 10.0 4.6 86.0- 6.0 2.3---- 0.0------------
1956-10-18 12.6 15.8 11.4 8.2 96.0- 7.7 1.7---- 6.7------------
1956-10-17 11.3 15.3 5.2 -2.9 75.8- 3.0 4.0---- 0.5------------
1956-10-16 7.9 13.7 1.6 -6.0 86.3- 0.0 2.0---- 0.0------------
1956-10-15 5.4 12.1 2.2 -5.4 87.8- 0.0 1.0---- 0.0------------
1956-10-14 9.7 13.6 7.4 5.9 77.5- 3.0 4.0---- 0.0------------
1956-10-13 12.0 14.3 10.0 4.7 73.0- 6.0 8.0---- 1.0------------
1956-10-12 11.0 12.4 9.6 6.1 82.3- 7.7 7.0---- 0.0------------
1956-10-11 10.0 13.6 5.5 0.4 83.5- 4.0 4.3---- 0.0------------
1956-10-10 6.9 11.6 1.1 -5.8 76.8- 1.3 2.0---- 0.0------------
1956-10-09 9.2 12.0 7.6 5.3 78.8- 5.3 4.7---- 2.3------------
1956-10-08 7.7 10.6 4.3 -0.7 77.3- 6.0 3.7---- 2.8------------
1956-10-07 7.5 9.0 6.0 4.1 77.5- 5.3 5.3---- 0.7------------
1956-10-06 8.2 10.2 4.7 -0.8 84.5- 5.7 3.3---- 3.8------------
1956-10-05 7.8 9.9 5.9 1.8 88.8- 4.0 4.0---- 4.2------------
1956-10-04 10.7 14.4 8.2 2.6 84.0- 4.3 4.0---- 3.4------------
1956-10-03 11.9 15.6 8.3 11.9 88.8- 5.0 4.0---- 0.1------------
1956-10-02 16.1 18.5 11.4 3.4 90.8- 7.0 4.0---- 6.4------------
1956-10-01 14.0 18.8 9.0 0.8 96.0- 5.3 3.0---- 16.7------------
1956-09-30 12.8 18.5 10.0 6.6 86.8- 0.0 3.7---- 2.6------------
1956-09-29 15.0 18.1 13.3 9.1 78.8- 2.7 7.0---- 0.0------------
1956-09-28 15.4 16.4 12.1 8.3 86.5- 7.0 7.0---- 4.1------------
1956-09-27 15.1 21.4 10.4 5.1 87.3- 2.7 1.7---- 3.4------------
1956-09-26 14.2 21.2 10.9 2.6 79.0- 0.0 3.0---- 0.0------------
1956-09-25 14.6 21.0 6.9 -1.2 69.5- 0.0 3.7---- 0.0------------
1956-09-24 12.7 18.7 8.5 1.2 58.3- 0.0 5.0---- 0.0------------
1956-09-23 15.0 19.3 11.1 5.0 68.5- 0.3 4.3---- 0.0------------
1956-09-22 14.8 20.1 8.3 -0.7 68.0- 0.0 4.3---- 0.0------------
1956-09-21 11.4 19.5 4.5 -2.5 85.8- 0.0 1.3---- 0.0------------
1956-09-20 10.3 15.4 6.0 -2.0 91.0- 1.3 1.7---- 0.0------------
1956-09-19 10.1 16.5 5.0 -1.8 88.5- 1.0 2.0---- 0.0------------
1956-09-18 8.7 15.2 4.4 -1.9 87.0- 0.7 2.0---- 0.0------------
1956-09-17 12.9 15.5 10.4 6.3 82.8- 4.0 4.0---- 2.2------------
1956-09-16 12.0 15.3 7.7 2.1 78.8- 5.7 5.3---- 0.5------------
1956-09-15 11.9 15.8 9.5 7.5 71.8- 2.0 5.0---- 0.0------------
1956-09-14 13.7 18.2 6.4 0.3 76.8- 1.3 2.3---- 0.0------------
1956-09-13 12.3 13.7 9.0 5.1 79.3- 2.7 6.7---- 1.5------------
1956-09-12 11.9 15.6 10.0 6.7 77.3- 1.0 5.7---- 0.9------------
1956-09-11 16.3 20.7 12.4 6.9 83.0- 6.0 2.7---- 8.8------------
252.6 ms

 

Źródłem pochodzenia danych jest Instytut Meteorologii i Gospodarki Wodnej – Państwowy Instytut Badawczy. Dane Instytutu Meteorologii i Gospodarki Wodnej – Państwowego Instytutu Badawczego zostały przetworzone.

Dane źródłowe można odnaleźć na stronie https://dane.imgw.pl